Aurora, Brazil
Current Conditions -  °F | °C
As of 3:00 PM on Tuesday 21 Oct 2014 (Local Time) from SBNF Reporting Station
Broken Clouds Broken Clouds  
Wind Chill: 72°   Ceiling: 7000
Heat Index: 72°   Visibility: 6mi
Dew Point: 57°   Wind: 12mph
Humidity: 60%   Direction: 110°ESE
Pressure: 30.15"   Gusts: NA
Location:  27.32°S, 49.64°W
Report Text: SBNF 211700Z 11010KT 9999 SCT025 SCT050 BKN070 22/14 Q1021
Loading
Personal Weather Stations






























Interactive Weather Map
Tropical Storm Tracking
New forecast layout! Learn more

10-Day Weather Forecast

Advertisements
Track Severe Weather on mobile